aviador You're here:

CYRQ Decoded Metar

TROIS RIVIERE in CANADA
Report Time2018-01-18 01:42:00
UTC Time2018-01-18 01:47:24
Flight Rules mvfr MVFR
Wind190° at 11 kt
W.Decomp.*RWY 23: 10.0 kt HW 4.5 kt LCW
W.Rank190° ranks 14
Current wind is above 190° avg. (6.6)
Visibility9999 m
Phenomena:Light Snow
Clouds:Overcast 019 Hf
Expected CloudBase > 800 ft AGL from Temp-Dew spread
Ceiling1,900 ft
Temp-8°C (ISA -23)
Dew Point-10°C (86% RH)
AAT-15.0°C
QNH1017 hPa
Density Alt-2,713 ft
Elevation198 ft
Report Wrong Elevation
Raw Report
SPECI CYRQ 180142Z AUTO 19011KT 7SM -SN OVC019 M08/M10 A3002 RMK
PRESFR SLP173=

Extra information for CYRQ:More info

Metar Taf Metar & Taf Last 4 Metars F.Rules Stats Wind Profile Meteogram Temp Stats Airport Information Weather charts Add Link Nearby VenuesMetar ALERT Operation Metar Decoded Social comments